Golden Ridge, Montana
Current Conditions -  °F | °C
As of 8:53 PM on Thursday 27 Nov 2014 (Local Time) from KGTF Reporting Station
Clear Clear  
Wind Chill: 41°   Ceiling: Unl
Heat Index: 46°   Visibility: 10mi
Dew Point: 35°   Wind: 10mph
Humidity: 66%   Direction: 260°W
Pressure: 29.69"   Gusts: 21mph
Location:  47.6169°N, 112.098°W
Report Text: KGTF 280353Z 26009G18KT 10SM CLR 08/02 A2969 RMK AO2 SLP062 T00780017
Loading
Personal Weather Stations






























Interactive Weather Map New forecast layout! Learn more

10-Day Weather Forecast

Advertisements
Track Severe Weather on mobile